sensor_id;sensor_type;location;lat;lon;timestamp;P1;durP1;ratioP1;P2;durP2;ratioP2
14268;SDS011;7218;51.480;7.006;2023-07-13T00:01:12;9.43;;;1.90;;
14268;SDS011;7218;51.480;7.006;2023-07-13T00:03:39;4.70;;;2.03;;
14268;SDS011;7218;51.480;7.006;2023-07-13T00:06:06;5.32;;;1.70;;
14268;SDS011;7218;51.480;7.006;2023-07-13T00:08:36;6.43;;;2.20;;
14268;SDS011;7218;51.480;7.006;2023-07-13T00:11:03;4.85;;;1.58;;
14268;SDS011;7218;51.480;7.006;2023-07-13T00:13:30;6.45;;;2.00;;
14268;SDS011;7218;51.480;7.006;2023-07-13T00:15:57;8.20;;;1.67;;
14268;SDS011;7218;51.480;7.006;2023-07-13T00:18:26;3.60;;;1.58;;
14268;SDS011;7218;51.480;7.006;2023-07-13T00:20:55;5.40;;;1.60;;
14268;SDS011;7218;51.480;7.006;2023-07-13T00:23:24;3.72;;;1.55;;
14268;SDS011;7218;51.480;7.006;2023-07-13T00:25:52;5.75;;;1.70;;
14268;SDS011;7218;51.480;7.006;2023-07-13T00:28:21;5.35;;;1.60;;
14268;SDS011;7218;51.480;7.006;2023-07-13T00:30:48;6.32;;;1.60;;
14268;SDS011;7218;51.480;7.006;2023-07-13T00:33:14;8.13;;;1.77;;
14268;SDS011;7218;51.480;7.006;2023-07-13T00:35:41;4.90;;;1.50;;
14268;SDS011;7218;51.480;7.006;2023-07-13T00:38:08;6.22;;;2.03;;
14268;SDS011;7218;51.480;7.006;2023-07-13T00:40:35;4.72;;;1.60;;
14268;SDS011;7218;51.480;7.006;2023-07-13T00:43:04;5.30;;;1.65;;
14268;SDS011;7218;51.480;7.006;2023-07-13T00:48:39;3.35;;;1.58;;
14268;SDS011;7218;51.480;7.006;2023-07-13T00:51:06;6.63;;;2.00;;
14268;SDS011;7218;51.480;7.006;2023-07-13T00:53:33;7.57;;;1.70;;
14268;SDS011;7218;51.480;7.006;2023-07-13T00:56:01;6.82;;;1.80;;
14268;SDS011;7218;51.480;7.006;2023-07-13T00:58:31;5.22;;;1.83;;
14268;SDS011;7218;51.480;7.006;2023-07-13T01:00:58;5.75;;;1.95;;
14268;SDS011;7218;51.480;7.006;2023-07-13T01:03:24;4.00;;;1.67;;
14268;SDS011;7218;51.480;7.006;2023-07-13T01:05:50;4.90;;;1.77;;
14268;SDS011;7218;51.480;7.006;2023-07-13T01:08:18;3.53;;;1.67;;
14268;SDS011;7218;51.480;7.006;2023-07-13T01:10:50;8.95;;;1.77;;
14268;SDS011;7218;51.480;7.006;2023-07-13T01:13:18;5.28;;;1.70;;
14268;SDS011;7218;51.480;7.006;2023-07-13T01:15:47;4.55;;;1.98;;
14268;SDS011;7218;51.480;7.006;2023-07-13T01:18:15;4.85;;;1.73;;
14268;SDS011;7218;51.480;7.006;2023-07-13T01:20:52;5.53;;;2.00;;
14268;SDS011;7218;51.480;7.006;2023-07-13T01:23:19;5.28;;;1.60;;
14268;SDS011;7218;51.480;7.006;2023-07-13T01:25:46;3.72;;;1.70;;
14268;SDS011;7218;51.480;7.006;2023-07-13T01:28:12;5.72;;;1.58;;
14268;SDS011;7218;51.480;7.006;2023-07-13T01:30:39;4.70;;;1.30;;
14268;SDS011;7218;51.480;7.006;2023-07-13T01:33:10;5.03;;;1.80;;
14268;SDS011;7218;51.480;7.006;2023-07-13T01:35:36;6.38;;;1.88;;
14268;SDS011;7218;51.480;7.006;2023-07-13T01:38:04;5.13;;;1.67;;
14268;SDS011;7218;51.480;7.006;2023-07-13T01:40:34;5.28;;;1.77;;
14268;SDS011;7218;51.480;7.006;2023-07-13T01:43:01;5.30;;;1.38;;
14268;SDS011;7218;51.480;7.006;2023-07-13T01:45:28;3.90;;;1.77;;
14268;SDS011;7218;51.480;7.006;2023-07-13T01:47:54;5.35;;;1.55;;
14268;SDS011;7218;51.480;7.006;2023-07-13T01:50:21;5.00;;;1.58;;
14268;SDS011;7218;51.480;7.006;2023-07-13T01:52:47;7.88;;;1.70;;
14268;SDS011;7218;51.480;7.006;2023-07-13T01:55:15;5.80;;;1.55;;
14268;SDS011;7218;51.480;7.006;2023-07-13T01:57:42;3.38;;;1.50;;
14268;SDS011;7218;51.480;7.006;2023-07-13T02:00:09;4.22;;;1.52;;
14268;SDS011;7218;51.480;7.006;2023-07-13T02:02:37;6.38;;;1.80;;
14268;SDS011;7218;51.480;7.006;2023-07-13T02:05:04;7.10;;;1.67;;
14268;SDS011;7218;51.480;7.006;2023-07-13T02:07:31;7.32;;;1.60;;
14268;SDS011;7218;51.480;7.006;2023-07-13T02:09:57;3.95;;;1.40;;
14268;SDS011;7218;51.480;7.006;2023-07-13T02:12:25;4.25;;;1.45;;
14268;SDS011;7218;51.480;7.006;2023-07-13T02:14:51;5.97;;;1.88;;
14268;SDS011;7218;51.480;7.006;2023-07-13T02:17:18;3.17;;;1.60;;
14268;SDS011;7218;51.480;7.006;2023-07-13T02:19:44;4.13;;;1.30;;
14268;SDS011;7218;51.480;7.006;2023-07-13T02:22:11;4.05;;;1.60;;
14268;SDS011;7218;51.480;7.006;2023-07-13T02:24:37;4.30;;;1.48;;
14268;SDS011;7218;51.480;7.006;2023-07-13T02:27:04;5.80;;;1.55;;
14268;SDS011;7218;51.480;7.006;2023-07-13T02:29:32;8.30;;;2.17;;
14268;SDS011;7218;51.480;7.006;2023-07-13T02:31:59;7.60;;;1.83;;
14268;SDS011;7218;51.480;7.006;2023-07-13T02:34:25;5.20;;;1.85;;
14268;SDS011;7218;51.480;7.006;2023-07-13T02:36:51;6.40;;;1.85;;
14268;SDS011;7218;51.480;7.006;2023-07-13T02:39:18;6.22;;;1.60;;
14268;SDS011;7218;51.480;7.006;2023-07-13T02:41:44;6.95;;;1.50;;
14268;SDS011;7218;51.480;7.006;2023-07-13T02:44:12;5.55;;;1.70;;
14268;SDS011;7218;51.480;7.006;2023-07-13T02:46:40;3.47;;;1.55;;
14268;SDS011;7218;51.480;7.006;2023-07-13T02:49:06;4.13;;;1.63;;
14268;SDS011;7218;51.480;7.006;2023-07-13T02:51:33;4.35;;;1.42;;
14268;SDS011;7218;51.480;7.006;2023-07-13T02:53:59;4.40;;;1.55;;
14268;SDS011;7218;51.480;7.006;2023-07-13T02:56:27;4.53;;;1.90;;
14268;SDS011;7218;51.480;7.006;2023-07-13T02:58:55;4.50;;;2.03;;
14268;SDS011;7218;51.480;7.006;2023-07-13T03:01:23;8.68;;;2.33;;
14268;SDS011;7218;51.480;7.006;2023-07-13T03:03:51;5.78;;;1.67;;
14268;SDS011;7218;51.480;7.006;2023-07-13T03:06:18;6.45;;;2.03;;
14268;SDS011;7218;51.480;7.006;2023-07-13T03:08:46;7.78;;;1.52;;
14268;SDS011;7218;51.480;7.006;2023-07-13T03:11:14;5.05;;;1.70;;
14268;SDS011;7218;51.480;7.006;2023-07-13T03:13:42;6.28;;;1.70;;
14268;SDS011;7218;51.480;7.006;2023-07-13T03:16:10;4.30;;;1.52;;
14268;SDS011;7218;51.480;7.006;2023-07-13T03:18:37;3.75;;;1.60;;
14268;SDS011;7218;51.480;7.006;2023-07-13T03:21:05;6.53;;;1.60;;
14268;SDS011;7218;51.480;7.006;2023-07-13T03:23:32;4.38;;;1.63;;
14268;SDS011;7218;51.480;7.006;2023-07-13T03:26:02;4.00;;;1.67;;
14268;SDS011;7218;51.480;7.006;2023-07-13T03:28:30;6.70;;;1.90;;
14268;SDS011;7218;51.480;7.006;2023-07-13T03:31:00;7.55;;;1.70;;
14268;SDS011;7218;51.480;7.006;2023-07-13T03:33:28;7.88;;;1.90;;
14268;SDS011;7218;51.480;7.006;2023-07-13T03:35:55;4.15;;;1.58;;
14268;SDS011;7218;51.480;7.006;2023-07-13T03:38:23;3.90;;;1.70;;
14268;SDS011;7218;51.480;7.006;2023-07-13T03:40:51;5.78;;;1.85;;
14268;SDS011;7218;51.480;7.006;2023-07-13T03:43:18;3.78;;;1.45;;
14268;SDS011;7218;51.480;7.006;2023-07-13T03:45:45;5.38;;;1.90;;
14268;SDS011;7218;51.480;7.006;2023-07-13T03:48:12;4.88;;;1.60;;
14268;SDS011;7218;51.480;7.006;2023-07-13T03:50:38;8.10;;;1.77;;
14268;SDS011;7218;51.480;7.006;2023-07-13T03:53:05;5.03;;;1.65;;
14268;SDS011;7218;51.480;7.006;2023-07-13T03:55:32;4.90;;;1.52;;
14268;SDS011;7218;51.480;7.006;2023-07-13T03:57:59;5.45;;;1.63;;
14268;SDS011;7218;51.480;7.006;2023-07-13T04:00:46;5.05;;;1.60;;
14268;SDS011;7218;51.480;7.006;2023-07-13T04:03:13;6.32;;;1.83;;
14268;SDS011;7218;51.480;7.006;2023-07-13T04:05:39;5.43;;;1.55;;
14268;SDS011;7218;51.480;7.006;2023-07-13T04:08:06;5.15;;;1.65;;
14268;SDS011;7218;51.480;7.006;2023-07-13T04:10:33;5.70;;;2.05;;
14268;SDS011;7218;51.480;7.006;2023-07-13T04:13:00;5.25;;;1.95;;
14268;SDS011;7218;51.480;7.006;2023-07-13T04:15:29;3.95;;;1.65;;
14268;SDS011;7218;51.480;7.006;2023-07-13T04:17:57;7.68;;;1.95;;
14268;SDS011;7218;51.480;7.006;2023-07-13T04:20:23;6.63;;;1.65;;
14268;SDS011;7218;51.480;7.006;2023-07-13T04:22:50;3.28;;;1.60;;
14268;SDS011;7218;51.480;7.006;2023-07-13T04:25:18;5.68;;;1.90;;
14268;SDS011;7218;51.480;7.006;2023-07-13T04:27:45;5.05;;;1.60;;
14268;SDS011;7218;51.480;7.006;2023-07-13T04:30:12;6.55;;;1.77;;
14268;SDS011;7218;51.480;7.006;2023-07-13T04:32:39;4.82;;;1.95;;
14268;SDS011;7218;51.480;7.006;2023-07-13T04:35:05;6.03;;;1.90;;
14268;SDS011;7218;51.480;7.006;2023-07-13T04:37:32;6.22;;;1.95;;
14268;SDS011;7218;51.480;7.006;2023-07-13T04:40:00;4.68;;;1.70;;
14268;SDS011;7218;51.480;7.006;2023-07-13T04:42:27;4.65;;;1.90;;
14268;SDS011;7218;51.480;7.006;2023-07-13T04:44:55;5.50;;;2.20;;
14268;SDS011;7218;51.480;7.006;2023-07-13T04:47:21;9.77;;;1.90;;
14268;SDS011;7218;51.480;7.006;2023-07-13T04:49:48;5.45;;;1.85;;
14268;SDS011;7218;51.480;7.006;2023-07-13T04:52:14;5.93;;;1.60;;
14268;SDS011;7218;51.480;7.006;2023-07-13T04:54:41;4.57;;;1.95;;
14268;SDS011;7218;51.480;7.006;2023-07-13T04:57:07;6.35;;;2.30;;
14268;SDS011;7218;51.480;7.006;2023-07-13T04:59:34;4.07;;;1.95;;
14268;SDS011;7218;51.480;7.006;2023-07-13T05:02:02;5.45;;;2.42;;
14268;SDS011;7218;51.480;7.006;2023-07-13T05:04:28;5.88;;;1.95;;
14268;SDS011;7218;51.480;7.006;2023-07-13T05:06:55;4.57;;;1.77;;
14268;SDS011;7218;51.480;7.006;2023-07-13T05:09:21;5.57;;;1.88;;
14268;SDS011;7218;51.480;7.006;2023-07-13T05:11:48;6.97;;;2.08;;
14268;SDS011;7218;51.480;7.006;2023-07-13T05:14:14;6.07;;;2.13;;
14268;SDS011;7218;51.480;7.006;2023-07-13T05:16:41;6.10;;;2.17;;
14268;SDS011;7218;51.480;7.006;2023-07-13T05:19:09;5.05;;;2.28;;
14268;SDS011;7218;51.480;7.006;2023-07-13T05:21:36;4.43;;;1.70;;
14268;SDS011;7218;51.480;7.006;2023-07-13T05:24:03;6.68;;;1.95;;
14268;SDS011;7218;51.480;7.006;2023-07-13T05:26:29;6.35;;;2.20;;
14268;SDS011;7218;51.480;7.006;2023-07-13T05:28:56;6.53;;;1.98;;
14268;SDS011;7218;51.480;7.006;2023-07-13T05:31:22;7.82;;;2.00;;
14268;SDS011;7218;51.480;7.006;2023-07-13T05:33:49;8.57;;;2.80;;
14268;SDS011;7218;51.480;7.006;2023-07-13T05:36:17;6.50;;;2.25;;
14268;SDS011;7218;51.480;7.006;2023-07-13T05:38:43;7.97;;;2.20;;
14268;SDS011;7218;51.480;7.006;2023-07-13T05:41:10;9.27;;;2.30;;
14268;SDS011;7218;51.480;7.006;2023-07-13T05:43:36;7.22;;;2.00;;
14268;SDS011;7218;51.480;7.006;2023-07-13T05:46:02;6.72;;;2.10;;
14268;SDS011;7218;51.480;7.006;2023-07-13T05:48:29;9.43;;;2.35;;
14268;SDS011;7218;51.480;7.006;2023-07-13T05:50:55;7.22;;;2.30;;
14268;SDS011;7218;51.480;7.006;2023-07-13T05:53:23;6.38;;;2.70;;
14268;SDS011;7218;51.480;7.006;2023-07-13T05:55:50;7.43;;;2.40;;
14268;SDS011;7218;51.480;7.006;2023-07-13T05:58:18;6.20;;;2.40;;
14268;SDS011;7218;51.480;7.006;2023-07-13T06:00:45;7.65;;;2.33;;
14268;SDS011;7218;51.480;7.006;2023-07-13T06:03:12;6.72;;;2.42;;
14268;SDS011;7218;51.480;7.006;2023-07-13T06:05:38;6.82;;;2.30;;
14268;SDS011;7218;51.480;7.006;2023-07-13T06:08:05;6.22;;;2.20;;
14268;SDS011;7218;51.480;7.006;2023-07-13T06:10:34;8.93;;;2.53;;
14268;SDS011;7218;51.480;7.006;2023-07-13T06:13:01;7.38;;;2.50;;
14268;SDS011;7218;51.480;7.006;2023-07-13T06:15:28;5.97;;;2.60;;
14268;SDS011;7218;51.480;7.006;2023-07-13T06:17:54;9.30;;;3.28;;
14268;SDS011;7218;51.480;7.006;2023-07-13T06:20:21;6.70;;;2.75;;
14268;SDS011;7218;51.480;7.006;2023-07-13T06:22:47;8.00;;;3.13;;
14268;SDS011;7218;51.480;7.006;2023-07-13T06:25:14;8.75;;;2.60;;
14268;SDS011;7218;51.480;7.006;2023-07-13T06:27:41;7.90;;;3.05;;
14268;SDS011;7218;51.480;7.006;2023-07-13T06:30:08;9.50;;;2.83;;
14268;SDS011;7218;51.480;7.006;2023-07-13T06:32:36;7.88;;;3.20;;
14268;SDS011;7218;51.480;7.006;2023-07-13T06:35:02;10.25;;;3.25;;
14268;SDS011;7218;51.480;7.006;2023-07-13T06:37:30;7.00;;;2.88;;
14268;SDS011;7218;51.480;7.006;2023-07-13T06:39:56;8.63;;;2.70;;
14268;SDS011;7218;51.480;7.006;2023-07-13T06:42:22;7.90;;;2.78;;
14268;SDS011;7218;51.480;7.006;2023-07-13T06:44:50;9.05;;;3.05;;
14268;SDS011;7218;51.480;7.006;2023-07-13T06:47:17;7.55;;;3.20;;
14268;SDS011;7218;51.480;7.006;2023-07-13T06:49:43;9.45;;;3.20;;
14268;SDS011;7218;51.480;7.006;2023-07-13T06:52:10;8.13;;;3.10;;
14268;SDS011;7218;51.480;7.006;2023-07-13T06:54:36;9.85;;;3.33;;
14268;SDS011;7218;51.480;7.006;2023-07-13T06:57:03;7.57;;;3.10;;
14268;SDS011;7218;51.480;7.006;2023-07-13T06:59:29;10.45;;;3.45;;
14268;SDS011;7218;51.480;7.006;2023-07-13T07:01:57;11.00;;;3.80;;
14268;SDS011;7218;51.480;7.006;2023-07-13T07:04:24;10.77;;;3.97;;
14268;SDS011;7218;51.480;7.006;2023-07-13T07:06:50;12.63;;;5.18;;
14268;SDS011;7218;51.480;7.006;2023-07-13T07:09:17;10.02;;;4.82;;
14268;SDS011;7218;51.480;7.006;2023-07-13T07:11:43;10.40;;;4.25;;
14268;SDS011;7218;51.480;7.006;2023-07-13T07:14:09;8.85;;;3.78;;
14268;SDS011;7218;51.480;7.006;2023-07-13T07:16:36;8.90;;;3.92;;
14268;SDS011;7218;51.480;7.006;2023-07-13T07:19:04;7.28;;;3.75;;
14268;SDS011;7218;51.480;7.006;2023-07-13T07:21:30;11.32;;;4.07;;
14268;SDS011;7218;51.480;7.006;2023-07-13T07:23:57;9.95;;;3.70;;
14268;SDS011;7218;51.480;7.006;2023-07-13T07:26:24;10.10;;;3.63;;
14268;SDS011;7218;51.480;7.006;2023-07-13T07:28:51;10.85;;;4.07;;
14268;SDS011;7218;51.480;7.006;2023-07-13T07:31:17;13.65;;;4.20;;
14268;SDS011;7218;51.480;7.006;2023-07-13T07:33:44;14.23;;;4.93;;
14268;SDS011;7218;51.480;7.006;2023-07-13T07:36:12;15.48;;;5.25;;
14268;SDS011;7218;51.480;7.006;2023-07-13T07:38:38;8.55;;;4.15;;
14268;SDS011;7218;51.480;7.006;2023-07-13T07:41:05;9.52;;;4.10;;
14268;SDS011;7218;51.480;7.006;2023-07-13T07:43:31;8.68;;;3.65;;
14268;SDS011;7218;51.480;7.006;2023-07-13T07:45:57;11.63;;;4.70;;
14268;SDS011;7218;51.480;7.006;2023-07-13T07:48:24;14.23;;;6.30;;
14268;SDS011;7218;51.480;7.006;2023-07-13T07:50:50;11.00;;;7.30;;
14268;SDS011;7218;51.480;7.006;2023-07-13T07:53:18;14.93;;;6.55;;
14268;SDS011;7218;51.480;7.006;2023-07-13T07:55:45;10.80;;;5.80;;
14268;SDS011;7218;51.480;7.006;2023-07-13T07:58:12;9.65;;;4.80;;
14268;SDS011;7218;51.480;7.006;2023-07-13T08:00:39;11.85;;;5.35;;
14268;SDS011;7218;51.480;7.006;2023-07-13T08:03:05;9.32;;;4.50;;
14268;SDS011;7218;51.480;7.006;2023-07-13T08:05:32;11.20;;;4.72;;
14268;SDS011;7218;51.480;7.006;2023-07-13T08:08:01;10.65;;;4.95;;
14268;SDS011;7218;51.480;7.006;2023-07-13T08:10:29;11.10;;;4.82;;
14268;SDS011;7218;51.480;7.006;2023-07-13T08:12:55;7.10;;;4.47;;
14268;SDS011;7218;51.480;7.006;2023-07-13T08:15:22;11.40;;;4.97;;
14268;SDS011;7218;51.480;7.006;2023-07-13T08:17:48;10.27;;;4.63;;
14268;SDS011;7218;51.480;7.006;2023-07-13T08:20:15;10.18;;;4.32;;
14268;SDS011;7218;51.480;7.006;2023-07-13T08:22:42;8.13;;;3.83;;
14268;SDS011;7218;51.480;7.006;2023-07-13T08:25:09;5.07;;;3.03;;
14268;SDS011;7218;51.480;7.006;2023-07-13T08:27:36;8.35;;;3.53;;
14268;SDS011;7218;51.480;7.006;2023-07-13T08:30:03;9.75;;;3.70;;
14268;SDS011;7218;51.480;7.006;2023-07-13T08:32:33;7.32;;;2.92;;
14268;SDS011;7218;51.480;7.006;2023-07-13T08:34:59;6.68;;;2.97;;
14268;SDS011;7218;51.480;7.006;2023-07-13T08:37:26;7.40;;;2.88;;
14268;SDS011;7218;51.480;7.006;2023-07-13T08:39:53;7.07;;;3.20;;
14268;SDS011;7218;51.480;7.006;2023-07-13T08:42:22;10.40;;;2.97;;
14268;SDS011;7218;51.480;7.006;2023-07-13T08:45:00;8.63;;;2.65;;
14268;SDS011;7218;51.480;7.006;2023-07-13T08:47:34;6.10;;;3.00;;
14268;SDS011;7218;51.480;7.006;2023-07-13T08:50:05;7.90;;;3.10;;
14268;SDS011;7218;51.480;7.006;2023-07-13T08:52:38;5.80;;;2.88;;
14268;SDS011;7218;51.480;7.006;2023-07-13T08:55:09;6.88;;;2.58;;
14268;SDS011;7218;51.480;7.006;2023-07-13T08:57:40;6.55;;;2.85;;
14268;SDS011;7218;51.480;7.006;2023-07-13T09:00:12;6.32;;;2.58;;
14268;SDS011;7218;51.480;7.006;2023-07-13T09:02:42;6.32;;;2.90;;
14268;SDS011;7218;51.480;7.006;2023-07-13T09:05:12;8.23;;;3.13;;
14268;SDS011;7218;51.480;7.006;2023-07-13T09:07:43;5.20;;;2.30;;
14268;SDS011;7218;51.480;7.006;2023-07-13T09:10:24;8.02;;;3.20;;
14268;SDS011;7218;51.480;7.006;2023-07-13T09:12:57;10.05;;;3.50;;
14268;SDS011;7218;51.480;7.006;2023-07-13T09:15:35;8.85;;;3.53;;
14268;SDS011;7218;51.480;7.006;2023-07-13T09:18:08;8.73;;;3.08;;
14268;SDS011;7218;51.480;7.006;2023-07-13T09:20:39;6.70;;;2.95;;
14268;SDS011;7218;51.480;7.006;2023-07-13T09:23:12;10.82;;;3.53;;
14268;SDS011;7218;51.480;7.006;2023-07-13T09:25:42;7.32;;;3.13;;
14268;SDS011;7218;51.480;7.006;2023-07-13T09:28:12;7.78;;;3.47;;
14268;SDS011;7218;51.480;7.006;2023-07-13T09:30:46;8.35;;;2.97;;
14268;SDS011;7218;51.480;7.006;2023-07-13T09:33:18;8.40;;;3.55;;
14268;SDS011;7218;51.480;7.006;2023-07-13T09:35:45;7.93;;;3.20;;
14268;SDS011;7218;51.480;7.006;2023-07-13T09:38:12;7.60;;;2.72;;
14268;SDS011;7218;51.480;7.006;2023-07-13T09:40:43;7.90;;;3.30;;
14268;SDS011;7218;51.480;7.006;2023-07-13T09:43:15;8.30;;;3.17;;
14268;SDS011;7218;51.480;7.006;2023-07-13T09:45:46;10.15;;;3.20;;
14268;SDS011;7218;51.480;7.006;2023-07-13T09:48:14;7.10;;;2.97;;
14268;SDS011;7218;51.480;7.006;2023-07-13T09:50:42;9.77;;;3.10;;
14268;SDS011;7218;51.480;7.006;2023-07-13T09:53:13;7.60;;;3.58;;
14268;SDS011;7218;51.480;7.006;2023-07-13T09:55:41;5.40;;;3.15;;
14268;SDS011;7218;51.480;7.006;2023-07-13T09:58:10;5.50;;;3.03;;
14268;SDS011;7218;51.480;7.006;2023-07-13T10:00:39;10.70;;;3.10;;
14268;SDS011;7218;51.480;7.006;2023-07-13T10:03:16;6.18;;;2.65;;
14268;SDS011;7218;51.480;7.006;2023-07-13T10:05:44;6.97;;;3.08;;
14268;SDS011;7218;51.480;7.006;2023-07-13T10:08:17;7.40;;;2.90;;
14268;SDS011;7218;51.480;7.006;2023-07-13T10:10:52;9.82;;;2.80;;
14268;SDS011;7218;51.480;7.006;2023-07-13T10:13:27;7.45;;;3.03;;
14268;SDS011;7218;51.480;7.006;2023-07-13T10:15:57;7.03;;;3.08;;
14268;SDS011;7218;51.480;7.006;2023-07-13T10:18:26;6.00;;;2.75;;
14268;SDS011;7218;51.480;7.006;2023-07-13T10:20:58;8.85;;;3.40;;
14268;SDS011;7218;51.480;7.006;2023-07-13T10:23:47;8.77;;;2.95;;
14268;SDS011;7218;51.480;7.006;2023-07-13T10:26:18;8.18;;;3.00;;
14268;SDS011;7218;51.480;7.006;2023-07-13T10:28:49;11.13;;;3.20;;
14268;SDS011;7218;51.480;7.006;2023-07-13T10:31:20;10.27;;;3.42;;
14268;SDS011;7218;51.480;7.006;2023-07-13T10:33:48;9.32;;;3.38;;
14268;SDS011;7218;51.480;7.006;2023-07-13T10:36:17;14.15;;;3.40;;
14268;SDS011;7218;51.480;7.006;2023-07-13T10:38:53;8.38;;;3.10;;
14268;SDS011;7218;51.480;7.006;2023-07-13T10:41:23;10.45;;;3.08;;
14268;SDS011;7218;51.480;7.006;2023-07-13T10:43:52;6.80;;;2.85;;
14268;SDS011;7218;51.480;7.006;2023-07-13T10:46:22;7.32;;;2.92;;
14268;SDS011;7218;51.480;7.006;2023-07-13T10:48:55;6.95;;;2.97;;
14268;SDS011;7218;51.480;7.006;2023-07-13T10:51:24;5.60;;;2.53;;
14268;SDS011;7218;51.480;7.006;2023-07-13T10:54:11;9.90;;;2.90;;
14268;SDS011;7218;51.480;7.006;2023-07-13T10:56:42;5.05;;;2.40;;
14268;SDS011;7218;51.480;7.006;2023-07-13T10:59:11;8.68;;;2.85;;
14268;SDS011;7218;51.480;7.006;2023-07-13T11:01:40;10.55;;;2.40;;
14268;SDS011;7218;51.480;7.006;2023-07-13T11:04:19;8.43;;;2.50;;
14268;SDS011;7218;51.480;7.006;2023-07-13T11:06:47;8.15;;;2.75;;
14268;SDS011;7218;51.480;7.006;2023-07-13T11:09:29;6.40;;;2.95;;
14268;SDS011;7218;51.480;7.006;2023-07-13T11:11:58;6.13;;;2.80;;
14268;SDS011;7218;51.480;7.006;2023-07-13T11:14:28;8.00;;;2.65;;
14268;SDS011;7218;51.480;7.006;2023-07-13T11:16:57;6.05;;;2.40;;
14268;SDS011;7218;51.480;7.006;2023-07-13T11:19:37;6.63;;;2.30;;
14268;SDS011;7218;51.480;7.006;2023-07-13T11:22:15;4.10;;;2.17;;
14268;SDS011;7218;51.480;7.006;2023-07-13T11:24:48;6.80;;;2.55;;
14268;SDS011;7218;51.480;7.006;2023-07-13T11:27:34;5.43;;;2.30;;
14268;SDS011;7218;51.480;7.006;2023-07-13T11:30:07;7.15;;;2.53;;
14268;SDS011;7218;51.480;7.006;2023-07-13T11:32:43;6.70;;;2.38;;
14268;SDS011;7218;51.480;7.006;2023-07-13T11:35:13;6.63;;;2.35;;
14268;SDS011;7218;51.480;7.006;2023-07-13T11:37:47;7.25;;;2.42;;
14268;SDS011;7218;51.480;7.006;2023-07-13T11:40:14;7.55;;;2.67;;
14268;SDS011;7218;51.480;7.006;2023-07-13T11:42:41;6.28;;;2.40;;
14268;SDS011;7218;51.480;7.006;2023-07-13T11:45:18;6.20;;;2.53;;
14268;SDS011;7218;51.480;7.006;2023-07-13T11:47:48;4.95;;;2.40;;
14268;SDS011;7218;51.480;7.006;2023-07-13T11:50:20;8.13;;;2.40;;
14268;SDS011;7218;51.480;7.006;2023-07-13T11:52:48;6.10;;;2.40;;
14268;SDS011;7218;51.480;7.006;2023-07-13T11:55:17;3.53;;;1.92;;
14268;SDS011;7218;51.480;7.006;2023-07-13T11:57:48;5.80;;;2.30;;
14268;SDS011;7218;51.480;7.006;2023-07-13T12:00:18;4.15;;;1.60;;
14268;SDS011;7218;51.480;7.006;2023-07-13T12:02:48;4.15;;;2.20;;
14268;SDS011;7218;51.480;7.006;2023-07-13T12:05:17;6.15;;;2.80;;
14268;SDS011;7218;51.480;7.006;2023-07-13T12:07:47;3.50;;;2.17;;
14268;SDS011;7218;51.480;7.006;2023-07-13T12:10:17;5.28;;;2.00;;
14268;SDS011;7218;51.480;7.006;2023-07-13T12:12:47;5.25;;;2.17;;
14268;SDS011;7218;51.480;7.006;2023-07-13T12:15:14;4.90;;;2.25;;
14268;SDS011;7218;51.480;7.006;2023-07-13T12:17:41;5.85;;;2.13;;
14268;SDS011;7218;51.480;7.006;2023-07-13T12:20:14;7.18;;;2.40;;
14268;SDS011;7218;51.480;7.006;2023-07-13T12:22:49;8.68;;;2.63;;
14268;SDS011;7218;51.480;7.006;2023-07-13T12:25:16;3.83;;;2.30;;
14268;SDS011;7218;51.480;7.006;2023-07-13T12:27:46;4.28;;;2.22;;
14268;SDS011;7218;51.480;7.006;2023-07-13T12:30:25;6.55;;;2.33;;
14268;SDS011;7218;51.480;7.006;2023-07-13T12:32:55;4.65;;;2.10;;
14268;SDS011;7218;51.480;7.006;2023-07-13T12:35:24;6.25;;;1.77;;
14268;SDS011;7218;51.480;7.006;2023-07-13T12:37:54;4.07;;;2.00;;
14268;SDS011;7218;51.480;7.006;2023-07-13T12:40:26;5.13;;;2.10;;
14268;SDS011;7218;51.480;7.006;2023-07-13T12:42:58;5.28;;;2.03;;
14268;SDS011;7218;51.480;7.006;2023-07-13T12:45:25;3.95;;;2.13;;
14268;SDS011;7218;51.480;7.006;2023-07-13T12:47:54;4.22;;;2.30;;
14268;SDS011;7218;51.480;7.006;2023-07-13T12:50:29;5.57;;;2.20;;
14268;SDS011;7218;51.480;7.006;2023-07-13T12:53:00;5.07;;;3.13;;
14268;SDS011;7218;51.480;7.006;2023-07-13T12:55:29;11.93;;;6.47;;
14268;SDS011;7218;51.480;7.006;2023-07-13T12:57:58;15.43;;;9.63;;
14268;SDS011;7218;51.480;7.006;2023-07-13T13:00:26;8.20;;;3.63;;
14268;SDS011;7218;51.480;7.006;2023-07-13T13:02:57;6.45;;;3.03;;
14268;SDS011;7218;51.480;7.006;2023-07-13T13:05:30;5.93;;;3.83;;
14268;SDS011;7218;51.480;7.006;2023-07-13T13:07:58;3.42;;;2.20;;
14268;SDS011;7218;51.480;7.006;2023-07-13T13:10:24;4.90;;;2.30;;
14268;SDS011;7218;51.480;7.006;2023-07-13T13:12:51;5.97;;;2.10;;
14268;SDS011;7218;51.480;7.006;2023-07-13T13:15:18;6.35;;;1.90;;
14268;SDS011;7218;51.480;7.006;2023-07-13T13:17:47;2.53;;;1.80;;
14268;SDS011;7218;51.480;7.006;2023-07-13T13:20:14;4.63;;;2.00;;
14268;SDS011;7218;51.480;7.006;2023-07-13T13:22:44;6.60;;;1.98;;
14268;SDS011;7218;51.480;7.006;2023-07-13T13:25:10;7.53;;;2.58;;
14268;SDS011;7218;51.480;7.006;2023-07-13T13:27:37;7.90;;;2.47;;
14268;SDS011;7218;51.480;7.006;2023-07-13T13:30:08;5.53;;;2.70;;
14268;SDS011;7218;51.480;7.006;2023-07-13T13:32:38;5.18;;;2.17;;
14268;SDS011;7218;51.480;7.006;2023-07-13T13:35:05;4.80;;;2.20;;
14268;SDS011;7218;51.480;7.006;2023-07-13T13:37:32;4.63;;;2.30;;
14268;SDS011;7218;51.480;7.006;2023-07-13T13:40:00;3.42;;;2.22;;
14268;SDS011;7218;51.480;7.006;2023-07-13T13:42:27;5.72;;;2.40;;
14268;SDS011;7218;51.480;7.006;2023-07-13T13:44:54;4.35;;;2.45;;
14268;SDS011;7218;51.480;7.006;2023-07-13T13:47:26;6.57;;;2.40;;
14268;SDS011;7218;51.480;7.006;2023-07-13T13:49:56;5.50;;;2.60;;
14268;SDS011;7218;51.480;7.006;2023-07-13T13:52:23;5.75;;;2.40;;
14268;SDS011;7218;51.480;7.006;2023-07-13T13:54:50;6.47;;;2.30;;
14268;SDS011;7218;51.480;7.006;2023-07-13T13:57:22;6.53;;;2.83;;
14268;SDS011;7218;51.480;7.006;2023-07-13T13:59:49;5.97;;;2.40;;
14268;SDS011;7218;51.480;7.006;2023-07-13T14:02:20;5.53;;;2.47;;
14268;SDS011;7218;51.480;7.006;2023-07-13T14:04:50;6.07;;;2.40;;
14268;SDS011;7218;51.480;7.006;2023-07-13T14:07:21;7.28;;;2.95;;
14268;SDS011;7218;51.480;7.006;2023-07-13T14:09:47;6.22;;;2.55;;
14268;SDS011;7218;51.480;7.006;2023-07-13T14:12:14;4.35;;;2.25;;
14268;SDS011;7218;51.480;7.006;2023-07-13T14:14:42;5.13;;;2.80;;
14268;SDS011;7218;51.480;7.006;2023-07-13T14:17:11;7.55;;;3.10;;
14268;SDS011;7218;51.480;7.006;2023-07-13T14:19:46;6.57;;;2.60;;
14268;SDS011;7218;51.480;7.006;2023-07-13T14:22:15;3.97;;;2.17;;
14268;SDS011;7218;51.480;7.006;2023-07-13T14:24:42;6.20;;;2.45;;
14268;SDS011;7218;51.480;7.006;2023-07-13T14:27:09;9.07;;;2.35;;
14268;SDS011;7218;51.480;7.006;2023-07-13T14:29:37;5.22;;;2.70;;
14268;SDS011;7218;51.480;7.006;2023-07-13T14:32:05;4.90;;;2.50;;
14268;SDS011;7218;51.480;7.006;2023-07-13T14:34:34;6.72;;;2.65;;
14268;SDS011;7218;51.480;7.006;2023-07-13T14:37:01;7.53;;;3.08;;
14268;SDS011;7218;51.480;7.006;2023-07-13T14:39:29;8.00;;;3.03;;
14268;SDS011;7218;51.480;7.006;2023-07-13T14:41:56;5.28;;;2.65;;
14268;SDS011;7218;51.480;7.006;2023-07-13T14:44:25;7.10;;;2.72;;
14268;SDS011;7218;51.480;7.006;2023-07-13T14:46:54;4.75;;;2.53;;
14268;SDS011;7218;51.480;7.006;2023-07-13T14:49:25;6.90;;;2.50;;
14268;SDS011;7218;51.480;7.006;2023-07-13T14:51:54;3.92;;;2.60;;
14268;SDS011;7218;51.480;7.006;2023-07-13T14:54:22;5.47;;;2.60;;
14268;SDS011;7218;51.480;7.006;2023-07-13T14:56:49;6.78;;;2.88;;
14268;SDS011;7218;51.480;7.006;2023-07-13T14:59:15;5.90;;;2.92;;
14268;SDS011;7218;51.480;7.006;2023-07-13T15:01:43;4.45;;;2.42;;
14268;SDS011;7218;51.480;7.006;2023-07-13T15:04:11;5.32;;;2.88;;
14268;SDS011;7218;51.480;7.006;2023-07-13T15:06:56;5.97;;;2.75;;
14268;SDS011;7218;51.480;7.006;2023-07-13T15:09:24;5.57;;;2.90;;
14268;SDS011;7218;51.480;7.006;2023-07-13T15:11:51;5.10;;;2.50;;